sensor_id;sensor_type;location;lat;lon;timestamp;pressure;altitude;pressure_sealevel;temperature;humidity
43804;BME280;29430;52.924;-2.388;2023-02-23T00:02:58;99382.44;;;4.69;93.37
43804;BME280;29430;52.924;-2.388;2023-02-23T00:07:52;99384.13;;;4.70;93.33
43804;BME280;29430;52.924;-2.388;2023-02-23T00:12:44;99395.31;;;4.74;93.63
43804;BME280;29430;52.924;-2.388;2023-02-23T00:17:36;99406.16;;;4.80;93.56
43804;BME280;29430;52.924;-2.388;2023-02-23T00:22:28;99404.94;;;4.83;93.24
43804;BME280;29430;52.924;-2.388;2023-02-23T00:27:19;99404.88;;;4.76;93.11
43804;BME280;29430;52.924;-2.388;2023-02-23T00:32:11;99404.44;;;4.73;92.84
43804;BME280;29430;52.924;-2.388;2023-02-23T00:37:03;99398.00;;;4.74;92.68
43804;BME280;29430;52.924;-2.388;2023-02-23T00:41:56;99402.09;;;4.70;93.10
43804;BME280;29430;52.924;-2.388;2023-02-23T00:46:54;99402.09;;;4.70;92.75
43804;BME280;29430;52.924;-2.388;2023-02-23T00:51:46;99403.69;;;4.64;93.33
43804;BME280;29430;52.924;-2.388;2023-02-23T00:56:38;99409.88;;;4.64;93.95
43804;BME280;29430;52.924;-2.388;2023-02-23T01:01:30;99411.75;;;4.64;94.08
43804;BME280;29430;52.924;-2.388;2023-02-23T01:06:22;99402.84;;;4.63;94.36
43804;BME280;29430;52.924;-2.388;2023-02-23T01:11:17;99410.25;;;4.61;94.77
43804;BME280;29430;52.924;-2.388;2023-02-23T01:16:11;99408.78;;;4.59;94.55
43804;BME280;29430;52.924;-2.388;2023-02-23T01:21:04;99423.03;;;4.59;95.09
43804;BME280;29430;52.924;-2.388;2023-02-23T01:25:56;99425.81;;;4.66;94.98
43804;BME280;29430;52.924;-2.388;2023-02-23T01:30:48;99434.72;;;4.66;95.52
43804;BME280;29430;52.924;-2.388;2023-02-23T01:35:40;99432.41;;;4.63;95.27
43804;BME280;29430;52.924;-2.388;2023-02-23T01:40:32;99433.31;;;4.71;95.69
43804;BME280;29430;52.924;-2.388;2023-02-23T01:45:34;99428.31;;;4.68;95.70
43804;BME280;29430;52.924;-2.388;2023-02-23T01:50:30;99428.31;;;4.68;96.06
43804;BME280;29430;52.924;-2.388;2023-02-23T01:55:24;99446.38;;;4.74;96.17
43804;BME280;29430;52.924;-2.388;2023-02-23T02:00:17;99448.59;;;4.70;95.86
43804;BME280;29430;52.924;-2.388;2023-02-23T02:05:10;99450.91;;;4.73;95.67
43804;BME280;29430;52.924;-2.388;2023-02-23T02:10:05;99448.03;;;4.75;95.55
43804;BME280;29430;52.924;-2.388;2023-02-23T02:15:04;99452.59;;;4.74;95.67
43804;BME280;29430;52.924;-2.388;2023-02-23T02:25:23;99451.66;;;4.82;95.62
43804;BME280;29430;52.924;-2.388;2023-02-23T02:45:30;99459.16;;;4.72;94.87
43804;BME280;29430;52.924;-2.388;2023-02-23T02:50:59;99464.47;;;4.65;95.09
43804;BME280;29430;52.924;-2.388;2023-02-23T02:55:42;99463.34;;;4.59;95.32
43804;BME280;29430;52.924;-2.388;2023-02-23T03:00:45;99468.06;;;4.57;95.90
43804;BME280;29430;52.924;-2.388;2023-02-23T03:05:56;99471.75;;;4.56;96.45
43804;BME280;29430;52.924;-2.388;2023-02-23T03:11:12;99473.91;;;4.61;96.78
43804;BME280;29430;52.924;-2.388;2023-02-23T03:22:22;99475.75;;;4.60;96.85
43804;BME280;29430;52.924;-2.388;2023-02-23T03:27:48;99478.44;;;4.60;97.11
43804;BME280;29430;52.924;-2.388;2023-02-23T03:33:08;99476.94;;;4.58;97.19
43804;BME280;29430;52.924;-2.388;2023-02-23T03:38:34;99483.16;;;4.58;97.84
43804;BME280;29430;52.924;-2.388;2023-02-23T03:43:53;99494.94;;;4.57;97.85
43804;BME280;29430;52.924;-2.388;2023-02-23T03:49:08;99498.16;;;4.53;98.88
43804;BME280;29430;52.924;-2.388;2023-02-23T03:54:28;99506.41;;;4.51;99.17
43804;BME280;29430;52.924;-2.388;2023-02-23T03:59:49;99506.97;;;4.46;99.09
43804;BME280;29430;52.924;-2.388;2023-02-23T04:05:05;99509.16;;;4.43;99.33
43804;BME280;29430;52.924;-2.388;2023-02-23T04:10:17;99530.19;;;4.39;99.92
43804;BME280;29430;52.924;-2.388;2023-02-23T04:20:22;99551.56;;;4.33;99.21
43804;BME280;29430;52.924;-2.388;2023-02-23T04:25:16;99551.06;;;4.29;98.62
43804;BME280;29430;52.924;-2.388;2023-02-23T04:30:09;99562.06;;;4.19;98.98
43804;BME280;29430;52.924;-2.388;2023-02-23T04:35:02;99566.47;;;4.12;98.83
43804;BME280;29430;52.924;-2.388;2023-02-23T04:39:54;99576.91;;;4.07;99.06
43804;BME280;29430;52.924;-2.388;2023-02-23T04:44:45;99587.53;;;4.00;98.63
43804;BME280;29430;52.924;-2.388;2023-02-23T04:49:37;99586.41;;;3.94;98.92
43804;BME280;29430;52.924;-2.388;2023-02-23T04:54:29;99592.47;;;3.88;98.77
43804;BME280;29430;52.924;-2.388;2023-02-23T04:59:21;99603.75;;;3.84;98.50
43804;BME280;29430;52.924;-2.388;2023-02-23T05:04:12;99598.25;;;3.77;98.60
43804;BME280;29430;52.924;-2.388;2023-02-23T05:09:04;99598.09;;;3.70;98.62
43804;BME280;29430;52.924;-2.388;2023-02-23T05:13:57;99604.84;;;3.66;98.19
43804;BME280;29430;52.924;-2.388;2023-02-23T05:18:49;99606.19;;;3.62;97.78
43804;BME280;29430;52.924;-2.388;2023-02-23T05:23:41;99620.31;;;3.56;97.39
43804;BME280;29430;52.924;-2.388;2023-02-23T05:28:33;99627.38;;;3.49;97.67
43804;BME280;29430;52.924;-2.388;2023-02-23T05:33:25;99627.88;;;3.44;97.09
43804;BME280;29430;52.924;-2.388;2023-02-23T05:38:17;99633.94;;;3.38;97.21
43804;BME280;29430;52.924;-2.388;2023-02-23T05:43:10;99639.19;;;3.31;96.83
43804;BME280;29430;52.924;-2.388;2023-02-23T05:48:02;99636.34;;;3.25;97.19
43804;BME280;29430;52.924;-2.388;2023-02-23T05:52:53;99635.66;;;3.22;96.68
43804;BME280;29430;52.924;-2.388;2023-02-23T05:57:45;99633.34;;;3.19;97.34
43804;BME280;29430;52.924;-2.388;2023-02-23T06:02:36;99643.41;;;3.17;97.12
43804;BME280;29430;52.924;-2.388;2023-02-23T06:07:28;99643.56;;;3.16;97.25
43804;BME280;29430;52.924;-2.388;2023-02-23T06:12:20;99640.75;;;3.09;96.53
43804;BME280;29430;52.924;-2.388;2023-02-23T06:17:13;99657.34;;;3.04;97.12
43804;BME280;29430;52.924;-2.388;2023-02-23T06:22:05;99656.16;;;2.99;97.09
43804;BME280;29430;52.924;-2.388;2023-02-23T06:26:56;99659.03;;;2.89;97.41
43804;BME280;29430;52.924;-2.388;2023-02-23T06:31:48;99667.75;;;2.83;97.36
43804;BME280;29430;52.924;-2.388;2023-02-23T06:36:40;99681.66;;;2.78;97.55
43804;BME280;29430;52.924;-2.388;2023-02-23T06:41:32;99683.81;;;2.75;97.79
43804;BME280;29430;52.924;-2.388;2023-02-23T06:46:24;99693.19;;;2.71;97.27
43804;BME280;29430;52.924;-2.388;2023-02-23T06:51:15;99691.03;;;2.66;97.81
43804;BME280;29430;52.924;-2.388;2023-02-23T06:56:07;99712.78;;;2.63;97.64
43804;BME280;29430;52.924;-2.388;2023-02-23T07:01:02;99723.81;;;2.60;97.40
43804;BME280;29430;52.924;-2.388;2023-02-23T07:05:54;99727.00;;;2.55;97.33
43804;BME280;29430;52.924;-2.388;2023-02-23T07:10:45;99741.72;;;2.51;97.20
43804;BME280;29430;52.924;-2.388;2023-02-23T07:15:40;99747.56;;;2.46;97.48
43804;BME280;29430;52.924;-2.388;2023-02-23T07:20:33;99752.91;;;2.46;97.63
43804;BME280;29430;52.924;-2.388;2023-02-23T07:25:26;99753.22;;;2.43;97.15
43804;BME280;29430;52.924;-2.388;2023-02-23T07:30:19;99756.06;;;2.42;97.77
43804;BME280;29430;52.924;-2.388;2023-02-23T07:35:15;99760.59;;;2.41;97.43
43804;BME280;29430;52.924;-2.388;2023-02-23T07:40:08;99778.47;;;2.41;97.12
43804;BME280;29430;52.924;-2.388;2023-02-23T07:45:00;99775.81;;;2.41;97.14
43804;BME280;29430;52.924;-2.388;2023-02-23T07:49:52;99793.88;;;2.47;97.32
43804;BME280;29430;52.924;-2.388;2023-02-23T07:54:45;99802.13;;;2.54;96.81
43804;BME280;29430;52.924;-2.388;2023-02-23T07:59:37;99811.66;;;2.56;96.94
43804;BME280;29430;52.924;-2.388;2023-02-23T08:04:29;99821.53;;;2.64;97.02
43804;BME280;29430;52.924;-2.388;2023-02-23T08:09:21;99812.69;;;2.72;97.25
43804;BME280;29430;52.924;-2.388;2023-02-23T08:14:13;99829.63;;;2.89;96.86
43804;BME280;29430;52.924;-2.388;2023-02-23T08:19:05;99835.38;;;3.18;98.04
43804;BME280;29430;52.924;-2.388;2023-02-23T08:23:57;99835.63;;;3.89;97.69
43804;BME280;29430;52.924;-2.388;2023-02-23T08:28:49;99834.94;;;4.75;95.67
43804;BME280;29430;52.924;-2.388;2023-02-23T08:33:41;99828.84;;;5.50;91.23
43804;BME280;29430;52.924;-2.388;2023-02-23T08:38:33;99829.94;;;6.24;88.24
43804;BME280;29430;52.924;-2.388;2023-02-23T08:43:27;99837.75;;;6.85;84.60
43804;BME280;29430;52.924;-2.388;2023-02-23T08:48:19;99844.94;;;7.43;81.06
43804;BME280;29430;52.924;-2.388;2023-02-23T08:53:13;99846.06;;;8.05;78.74
43804;BME280;29430;52.924;-2.388;2023-02-23T08:58:07;99846.94;;;8.47;78.37
43804;BME280;29430;52.924;-2.388;2023-02-23T09:03:01;99839.56;;;8.76;74.33
43804;BME280;29430;52.924;-2.388;2023-02-23T09:07:53;99838.03;;;9.35;73.52
43804;BME280;29430;52.924;-2.388;2023-02-23T09:12:44;99838.84;;;9.96;71.60
43804;BME280;29430;52.924;-2.388;2023-02-23T09:17:37;99852.50;;;10.48;70.13
43804;BME280;29430;52.924;-2.388;2023-02-23T09:22:28;99851.06;;;10.97;68.09
43804;BME280;29430;52.924;-2.388;2023-02-23T09:27:20;99841.59;;;11.38;63.86
43804;BME280;29430;52.924;-2.388;2023-02-23T09:32:12;99853.63;;;11.49;61.63
43804;BME280;29430;52.924;-2.388;2023-02-23T09:37:04;99867.25;;;11.42;63.12
43804;BME280;29430;52.924;-2.388;2023-02-23T09:42:32;99864.75;;;11.73;63.62
43804;BME280;29430;52.924;-2.388;2023-02-23T09:52:39;99872.81;;;12.11;55.83
43804;BME280;29430;52.924;-2.388;2023-02-23T09:57:37;99879.88;;;11.62;57.25
43804;BME280;29430;52.924;-2.388;2023-02-23T10:02:37;99881.53;;;11.63;57.44
43804;BME280;29430;52.924;-2.388;2023-02-23T10:07:47;99870.19;;;11.98;57.10
43804;BME280;29430;52.924;-2.388;2023-02-23T10:22:47;99867.06;;;12.38;57.75
43804;BME280;29430;52.924;-2.388;2023-02-23T10:27:49;99867.84;;;12.64;53.77
43804;BME280;29430;52.924;-2.388;2023-02-23T10:38:01;99873.50;;;12.62;55.14
43804;BME280;29430;52.924;-2.388;2023-02-23T10:42:54;99868.44;;;12.29;54.17
43804;BME280;29430;52.924;-2.388;2023-02-23T10:47:46;99864.09;;;12.03;53.29
43804;BME280;29430;52.924;-2.388;2023-02-23T10:52:45;99876.69;;;11.97;55.55
43804;BME280;29430;52.924;-2.388;2023-02-23T10:57:37;99867.28;;;12.18;54.88
43804;BME280;29430;52.924;-2.388;2023-02-23T11:02:30;99875.50;;;12.11;53.75
43804;BME280;29430;52.924;-2.388;2023-02-23T11:07:28;99878.72;;;12.02;54.37
43804;BME280;29430;52.924;-2.388;2023-02-23T11:12:36;99881.31;;;11.90;55.36
43804;BME280;29430;52.924;-2.388;2023-02-23T11:17:35;99877.00;;;12.07;55.62
43804;BME280;29430;52.924;-2.388;2023-02-23T11:22:33;99862.41;;;12.27;56.87
43804;BME280;29430;52.924;-2.388;2023-02-23T11:27:26;99872.22;;;12.46;52.74
43804;BME280;29430;52.924;-2.388;2023-02-23T11:32:26;99879.28;;;12.10;53.56
43804;BME280;29430;52.924;-2.388;2023-02-23T11:37:21;99881.25;;;12.22;52.89
43804;BME280;29430;52.924;-2.388;2023-02-23T11:42:19;99882.44;;;11.82;51.07
43804;BME280;29430;52.924;-2.388;2023-02-23T11:47:21;99874.72;;;11.22;55.04
43804;BME280;29430;52.924;-2.388;2023-02-23T11:52:17;99865.63;;;11.67;53.86
43804;BME280;29430;52.924;-2.388;2023-02-23T11:57:09;99862.91;;;11.67;52.89
43804;BME280;29430;52.924;-2.388;2023-02-23T12:02:18;99873.22;;;11.58;55.36
43804;BME280;29430;52.924;-2.388;2023-02-23T12:12:30;99870.94;;;11.23;53.94
43804;BME280;29430;52.924;-2.388;2023-02-23T12:17:33;99869.72;;;11.19;54.25
43804;BME280;29430;52.924;-2.388;2023-02-23T12:22:55;99863.22;;;10.88;54.07
43804;BME280;29430;52.924;-2.388;2023-02-23T12:27:56;99859.97;;;10.59;55.19
43804;BME280;29430;52.924;-2.388;2023-02-23T12:32:58;99850.59;;;10.62;54.34
43804;BME280;29430;52.924;-2.388;2023-02-23T12:53:57;99850.84;;;10.47;56.71
43804;BME280;29430;52.924;-2.388;2023-02-23T13:08:55;99839.19;;;10.39;55.73
43804;BME280;29430;52.924;-2.388;2023-02-23T13:14:25;99834.09;;;10.63;57.69
43804;BME280;29430;52.924;-2.388;2023-02-23T13:19:26;99838.09;;;10.54;55.08
43804;BME280;29430;52.924;-2.388;2023-02-23T13:24:25;99828.06;;;10.54;56.84
43804;BME280;29430;52.924;-2.388;2023-02-23T13:29:35;99834.03;;;10.77;57.06
43804;BME280;29430;52.924;-2.388;2023-02-23T13:34:41;99825.22;;;10.81;54.52
43804;BME280;29430;52.924;-2.388;2023-02-23T13:39:51;99817.59;;;10.65;53.12
43804;BME280;29430;52.924;-2.388;2023-02-23T13:44:54;99818.69;;;10.57;53.37
43804;BME280;29430;52.924;-2.388;2023-02-23T13:50:28;99816.97;;;10.63;55.01
43804;BME280;29430;52.924;-2.388;2023-02-23T14:00:23;99828.38;;;10.19;53.26
43804;BME280;29430;52.924;-2.388;2023-02-23T14:05:23;99821.09;;;10.07;55.61
43804;BME280;29430;52.924;-2.388;2023-02-23T14:10:24;99814.41;;;10.16;55.66
43804;BME280;29430;52.924;-2.388;2023-02-23T14:30:26;99819.19;;;10.20;53.41
43804;BME280;29430;52.924;-2.388;2023-02-23T14:40:29;99809.41;;;10.13;53.87
43804;BME280;29430;52.924;-2.388;2023-02-23T14:45:22;99806.75;;;9.99;51.88
43804;BME280;29430;52.924;-2.388;2023-02-23T14:50:27;99807.63;;;9.73;51.25
43804;BME280;29430;52.924;-2.388;2023-02-23T14:55:24;99796.38;;;9.56;50.42
43804;BME280;29430;52.924;-2.388;2023-02-23T15:00:31;99800.31;;;9.40;51.43
43804;BME280;29430;52.924;-2.388;2023-02-23T15:05:36;99786.59;;;9.48;51.52
43804;BME280;29430;52.924;-2.388;2023-02-23T15:10:35;99797.19;;;9.63;49.35
43804;BME280;29430;52.924;-2.388;2023-02-23T15:15:27;99781.56;;;9.59;50.22
43804;BME280;29430;52.924;-2.388;2023-02-23T15:20:23;99783.47;;;9.58;50.65
43804;BME280;29430;52.924;-2.388;2023-02-23T15:25:31;99785.97;;;9.53;48.96
43804;BME280;29430;52.924;-2.388;2023-02-23T15:30:29;99778.69;;;9.40;50.34
43804;BME280;29430;52.924;-2.388;2023-02-23T15:35:21;99783.28;;;9.33;49.32
43804;BME280;29430;52.924;-2.388;2023-02-23T15:40:15;99793.03;;;9.27;48.40
43804;BME280;29430;52.924;-2.388;2023-02-23T15:50:27;99784.72;;;9.09;49.57
43804;BME280;29430;52.924;-2.388;2023-02-23T15:55:34;99782.41;;;8.99;48.94
43804;BME280;29430;52.924;-2.388;2023-02-23T16:00:53;99783.41;;;8.78;49.83
43804;BME280;29430;52.924;-2.388;2023-02-23T16:05:58;99782.06;;;8.54;50.17
43804;BME280;29430;52.924;-2.388;2023-02-23T16:15:52;99780.25;;;8.19;51.27
43804;BME280;29430;52.924;-2.388;2023-02-23T16:20:50;99779.81;;;8.16;52.28
43804;BME280;29430;52.924;-2.388;2023-02-23T16:25:52;99784.97;;;8.11;52.77
43804;BME280;29430;52.924;-2.388;2023-02-23T16:31:11;99781.63;;;8.02;52.13
43804;BME280;29430;52.924;-2.388;2023-02-23T16:36:55;99771.63;;;7.96;52.79
43804;BME280;29430;52.924;-2.388;2023-02-23T16:41:31;99771.38;;;7.91;52.69
43804;BME280;29430;52.924;-2.388;2023-02-23T16:46:24;99777.94;;;7.81;52.28
43804;BME280;29430;52.924;-2.388;2023-02-23T16:51:20;99765.63;;;7.72;52.67
43804;BME280;29430;52.924;-2.388;2023-02-23T16:56:17;99765.81;;;7.64;52.40
43804;BME280;29430;52.924;-2.388;2023-02-23T17:01:11;99773.16;;;7.48;52.31
43804;BME280;29430;52.924;-2.388;2023-02-23T17:06:10;99784.50;;;7.37;52.38
43804;BME280;29430;52.924;-2.388;2023-02-23T17:11:06;99772.38;;;7.26;52.42
43804;BME280;29430;52.924;-2.388;2023-02-23T17:16:01;99782.03;;;7.14;52.55
43804;BME280;29430;52.924;-2.388;2023-02-23T17:20:55;99766.72;;;6.99;52.34
43804;BME280;29430;52.924;-2.388;2023-02-23T17:25:47;99769.31;;;6.86;52.79
43804;BME280;29430;52.924;-2.388;2023-02-23T17:30:39;99779.00;;;6.80;52.88
43804;BME280;29430;52.924;-2.388;2023-02-23T17:35:33;99772.06;;;6.71;52.83
43804;BME280;29430;52.924;-2.388;2023-02-23T17:40:27;99767.75;;;6.55;53.27
43804;BME280;29430;52.924;-2.388;2023-02-23T17:45:19;99771.03;;;6.51;53.68
43804;BME280;29430;52.924;-2.388;2023-02-23T17:50:11;99769.28;;;6.43;53.67
43804;BME280;29430;52.924;-2.388;2023-02-23T17:55:03;99771.81;;;6.30;54.40
43804;BME280;29430;52.924;-2.388;2023-02-23T17:59:56;99782.88;;;6.20;54.15
43804;BME280;29430;52.924;-2.388;2023-02-23T18:04:49;99769.22;;;6.06;54.48
43804;BME280;29430;52.924;-2.388;2023-02-23T18:09:41;99780.44;;;5.95;55.05
43804;BME280;29430;52.924;-2.388;2023-02-23T18:14:33;99782.56;;;5.85;55.58
43804;BME280;29430;52.924;-2.388;2023-02-23T18:19:25;99781.81;;;5.76;56.54
43804;BME280;29430;52.924;-2.388;2023-02-23T18:24:17;99778.22;;;5.69;56.83
43804;BME280;29430;52.924;-2.388;2023-02-23T18:29:09;99773.25;;;5.57;57.80
43804;BME280;29430;52.924;-2.388;2023-02-23T18:34:00;99772.91;;;5.46;58.86
43804;BME280;29430;52.924;-2.388;2023-02-23T18:38:53;99780.84;;;5.39;59.26
43804;BME280;29430;52.924;-2.388;2023-02-23T18:43:46;99770.53;;;5.28;60.10
43804;BME280;29430;52.924;-2.388;2023-02-23T18:48:38;99772.16;;;5.14;60.43
43804;BME280;29430;52.924;-2.388;2023-02-23T18:53:32;99774.81;;;4.99;61.04
43804;BME280;29430;52.924;-2.388;2023-02-23T18:58:27;99790.25;;;4.82;61.62
43804;BME280;29430;52.924;-2.388;2023-02-23T19:03:19;99770.88;;;4.63;62.20
43804;BME280;29430;52.924;-2.388;2023-02-23T19:08:11;99767.34;;;4.63;63.08
43804;BME280;29430;52.924;-2.388;2023-02-23T19:13:06;99762.81;;;4.63;63.40
43804;BME280;29430;52.924;-2.388;2023-02-23T19:17:59;99757.97;;;4.59;63.36
43804;BME280;29430;52.924;-2.388;2023-02-23T19:22:51;99765.88;;;4.52;63.43
43804;BME280;29430;52.924;-2.388;2023-02-23T19:27:42;99765.06;;;4.52;63.86
43804;BME280;29430;52.924;-2.388;2023-02-23T19:32:35;99743.47;;;4.45;63.54
43804;BME280;29430;52.924;-2.388;2023-02-23T19:37:29;99755.22;;;4.44;63.74
43804;BME280;29430;52.924;-2.388;2023-02-23T19:42:21;99742.66;;;4.36;64.14
43804;BME280;29430;52.924;-2.388;2023-02-23T19:47:13;99730.41;;;4.34;64.91
43804;BME280;29430;52.924;-2.388;2023-02-23T19:52:04;99747.75;;;4.31;64.95
43804;BME280;29430;52.924;-2.388;2023-02-23T19:56:56;99737.56;;;4.18;65.20
43804;BME280;29430;52.924;-2.388;2023-02-23T20:01:48;99734.38;;;4.15;65.72
43804;BME280;29430;52.924;-2.388;2023-02-23T20:06:42;99743.97;;;4.09;66.22
43804;BME280;29430;52.924;-2.388;2023-02-23T20:11:37;99739.63;;;4.08;66.24
43804;BME280;29430;52.924;-2.388;2023-02-23T20:16:30;99736.44;;;4.04;66.58
43804;BME280;29430;52.924;-2.388;2023-02-23T20:21:23;99726.75;;;4.03;66.84
43804;BME280;29430;52.924;-2.388;2023-02-23T20:26:20;99708.97;;;4.02;67.22
43804;BME280;29430;52.924;-2.388;2023-02-23T20:31:14;99721.19;;;4.05;67.38
43804;BME280;29430;52.924;-2.388;2023-02-23T20:36:07;99724.72;;;4.05;67.39
43804;BME280;29430;52.924;-2.388;2023-02-23T20:40:58;99741.28;;;4.09;67.51
43804;BME280;29430;52.924;-2.388;2023-02-23T20:45:53;99738.59;;;4.09;67.52
43804;BME280;29430;52.924;-2.388;2023-02-23T20:50:46;99746.31;;;4.12;67.27
43804;BME280;29430;52.924;-2.388;2023-02-23T20:55:37;99742.97;;;4.10;67.95
43804;BME280;29430;52.924;-2.388;2023-02-23T21:00:31;99744.31;;;4.14;68.32
43804;BME280;29430;52.924;-2.388;2023-02-23T21:05:25;99742.63;;;4.13;68.97
43804;BME280;29430;52.924;-2.388;2023-02-23T21:10:17;99728.22;;;4.06;69.82
43804;BME280;29430;52.924;-2.388;2023-02-23T21:15:10;99720.34;;;4.04;70.02
43804;BME280;29430;52.924;-2.388;2023-02-23T21:20:06;99715.66;;;4.06;70.69
43804;BME280;29430;52.924;-2.388;2023-02-23T21:25:01;99710.81;;;4.02;70.43
43804;BME280;29430;52.924;-2.388;2023-02-23T21:29:53;99703.06;;;4.07;71.12
43804;BME280;29430;52.924;-2.388;2023-02-23T21:34:45;99697.34;;;4.10;70.46
43804;BME280;29430;52.924;-2.388;2023-02-23T21:39:37;99684.56;;;4.12;69.97
43804;BME280;29430;52.924;-2.388;2023-02-23T21:44:31;99686.06;;;4.15;70.58
43804;BME280;29430;52.924;-2.388;2023-02-23T21:49:23;99669.78;;;4.16;70.44
43804;BME280;29430;52.924;-2.388;2023-02-23T21:54:15;99658.06;;;4.17;70.19
43804;BME280;29430;52.924;-2.388;2023-02-23T21:59:08;99655.84;;;4.21;69.91
43804;BME280;29430;52.924;-2.388;2023-02-23T22:04:03;99651.66;;;4.18;70.14
43804;BME280;29430;52.924;-2.388;2023-02-23T22:08:56;99650.94;;;4.24;70.64
43804;BME280;29430;52.924;-2.388;2023-02-23T22:13:52;99664.31;;;4.33;70.56
43804;BME280;29430;52.924;-2.388;2023-02-23T22:18:44;99653.22;;;4.36;70.30
43804;BME280;29430;52.924;-2.388;2023-02-23T22:23:38;99647.84;;;4.36;70.58
43804;BME280;29430;52.924;-2.388;2023-02-23T22:28:30;99655.84;;;4.44;70.30
43804;BME280;29430;52.924;-2.388;2023-02-23T22:33:23;99639.28;;;4.40;70.71
43804;BME280;29430;52.924;-2.388;2023-02-23T22:38:16;99640.72;;;4.43;70.89
43804;BME280;29430;52.924;-2.388;2023-02-23T22:43:10;99634.53;;;4.42;70.99
43804;BME280;29430;52.924;-2.388;2023-02-23T22:48:03;99620.28;;;4.42;71.40
43804;BME280;29430;52.924;-2.388;2023-02-23T22:52:56;99617.44;;;4.43;71.94
43804;BME280;29430;52.924;-2.388;2023-02-23T22:57:48;99613.59;;;4.38;72.09
43804;BME280;29430;52.924;-2.388;2023-02-23T23:02:40;99598.81;;;4.42;72.34
43804;BME280;29430;52.924;-2.388;2023-02-23T23:07:32;99592.53;;;4.50;72.29
43804;BME280;29430;52.924;-2.388;2023-02-23T23:12:24;99595.03;;;4.51;72.28
43804;BME280;29430;52.924;-2.388;2023-02-23T23:17:19;99587.97;;;4.50;72.43
43804;BME280;29430;52.924;-2.388;2023-02-23T23:22:11;99585.94;;;4.52;72.62
43804;BME280;29430;52.924;-2.388;2023-02-23T23:27:04;99562.63;;;4.53;72.92
43804;BME280;29430;52.924;-2.388;2023-02-23T23:31:58;99561.78;;;4.52;73.00
43804;BME280;29430;52.924;-2.388;2023-02-23T23:36:52;99545.84;;;4.51;73.54
43804;BME280;29430;52.924;-2.388;2023-02-23T23:41:47;99525.56;;;4.48;73.60
43804;BME280;29430;52.924;-2.388;2023-02-23T23:46:40;99522.53;;;4.51;73.97
43804;BME280;29430;52.924;-2.388;2023-02-23T23:51:44;99508.41;;;4.49;74.39
43804;BME280;29430;52.924;-2.388;2023-02-23T23:56:36;99507.69;;;4.55;74.50
